sensor_id;sensor_type;location;lat;lon;timestamp;temperature;humidity
10247;DHT22;5168;47.854;7.944;2024-02-15T00:00:03;6.00;99.90
10247;DHT22;5168;47.854;7.944;2024-02-15T00:02:29;5.70;99.90
10247;DHT22;5168;47.854;7.944;2024-02-15T00:04:54;5.70;99.90
10247;DHT22;5168;47.854;7.944;2024-02-15T00:07:22;5.50;99.90
10247;DHT22;5168;47.854;7.944;2024-02-15T00:09:48;5.80;99.90
10247;DHT22;5168;47.854;7.944;2024-02-15T00:12:14;6.20;99.90
10247;DHT22;5168;47.854;7.944;2024-02-15T00:14:40;6.10;99.90
10247;DHT22;5168;47.854;7.944;2024-02-15T00:19:31;5.70;99.90
10247;DHT22;5168;47.854;7.944;2024-02-15T00:36:41;5.80;99.90
10247;DHT22;5168;47.854;7.944;2024-02-15T00:39:07;6.50;99.90
10247;DHT22;5168;47.854;7.944;2024-02-15T00:41:33;5.80;99.90
10247;DHT22;5168;47.854;7.944;2024-02-15T00:43:59;5.90;99.90
10247;DHT22;5168;47.854;7.944;2024-02-15T00:46:25;6.10;99.90
10247;DHT22;5168;47.854;7.944;2024-02-15T00:48:55;6.30;99.90
10247;DHT22;5168;47.854;7.944;2024-02-15T00:56:13;5.90;99.90
10247;DHT22;5168;47.854;7.944;2024-02-15T01:01:04;6.00;99.90
10247;DHT22;5168;47.854;7.944;2024-02-15T01:03:29;5.70;99.90
10247;DHT22;5168;47.854;7.944;2024-02-15T01:08:22;5.80;99.90
10247;DHT22;5168;47.854;7.944;2024-02-15T01:10:47;5.30;99.90
10247;DHT22;5168;47.854;7.944;2024-02-15T01:15:39;5.70;99.90
10247;DHT22;5168;47.854;7.944;2024-02-15T01:18:06;5.50;99.90
10247;DHT22;5168;47.854;7.944;2024-02-15T01:22:57;5.70;99.90
10247;DHT22;5168;47.854;7.944;2024-02-15T01:25:23;6.10;99.90
10247;DHT22;5168;47.854;7.944;2024-02-15T01:30:14;5.90;99.90
10247;DHT22;5168;47.854;7.944;2024-02-15T01:32:40;6.20;99.90
10247;DHT22;5168;47.854;7.944;2024-02-15T01:35:07;5.90;99.90
10247;DHT22;5168;47.854;7.944;2024-02-15T01:37:33;5.50;99.90
10247;DHT22;5168;47.854;7.944;2024-02-15T01:44:51;5.60;99.90
10247;DHT22;5168;47.854;7.944;2024-02-15T01:47:18;5.70;99.90
10247;DHT22;5168;47.854;7.944;2024-02-15T01:49:48;5.60;99.90
10247;DHT22;5168;47.854;7.944;2024-02-15T01:52:16;5.90;99.90
10247;DHT22;5168;47.854;7.944;2024-02-15T01:59:35;5.60;99.90
10247;DHT22;5168;47.854;7.944;2024-02-15T02:02:02;5.60;99.90
10247;DHT22;5168;47.854;7.944;2024-02-15T02:06:57;5.60;99.90
10247;DHT22;5168;47.854;7.944;2024-02-15T02:09:24;5.20;99.90
10247;DHT22;5168;47.854;7.944;2024-02-15T02:16:42;5.70;99.90
10247;DHT22;5168;47.854;7.944;2024-02-15T02:21:35;5.10;99.90
10247;DHT22;5168;47.854;7.944;2024-02-15T02:24:03;4.90;99.90
10247;DHT22;5168;47.854;7.944;2024-02-15T02:26:34;5.60;99.90
10247;DHT22;5168;47.854;7.944;2024-02-15T02:29:02;5.20;99.90
10247;DHT22;5168;47.854;7.944;2024-02-15T02:31:33;5.30;99.90
10247;DHT22;5168;47.854;7.944;2024-02-15T02:33:59;5.00;99.90
10247;DHT22;5168;47.854;7.944;2024-02-15T02:38:52;5.60;99.90
10247;DHT22;5168;47.854;7.944;2024-02-15T02:41:18;5.30;99.90
10247;DHT22;5168;47.854;7.944;2024-02-15T02:48:39;4.90;99.90
10247;DHT22;5168;47.854;7.944;2024-02-15T02:51:06;5.00;99.90
10247;DHT22;5168;47.854;7.944;2024-02-15T02:53:32;5.00;99.90
10247;DHT22;5168;47.854;7.944;2024-02-15T02:55:57;5.30;99.90
10247;DHT22;5168;47.854;7.944;2024-02-15T03:03:16;5.00;99.90
10247;DHT22;5168;47.854;7.944;2024-02-15T03:08:13;5.10;99.90
10247;DHT22;5168;47.854;7.944;2024-02-15T03:10:39;4.80;99.90
10247;DHT22;5168;47.854;7.944;2024-02-15T03:15:34;4.80;99.90
10247;DHT22;5168;47.854;7.944;2024-02-15T03:20:38;5.30;99.90
10247;DHT22;5168;47.854;7.944;2024-02-15T03:23:03;4.90;99.90
10247;DHT22;5168;47.854;7.944;2024-02-15T03:25:29;5.20;99.90
10247;DHT22;5168;47.854;7.944;2024-02-15T03:27:57;5.00;99.90
10247;DHT22;5168;47.854;7.944;2024-02-15T03:30:24;5.20;99.90
10247;DHT22;5168;47.854;7.944;2024-02-15T03:35:21;5.60;99.90
10247;DHT22;5168;47.854;7.944;2024-02-15T03:37:48;5.70;99.90
10247;DHT22;5168;47.854;7.944;2024-02-15T03:40:16;5.00;99.90
10247;DHT22;5168;47.854;7.944;2024-02-15T03:42:42;5.20;99.90
10247;DHT22;5168;47.854;7.944;2024-02-15T03:45:08;5.80;99.90
10247;DHT22;5168;47.854;7.944;2024-02-15T03:47:34;5.80;99.90
10247;DHT22;5168;47.854;7.944;2024-02-15T03:50:04;5.20;99.90
10247;DHT22;5168;47.854;7.944;2024-02-15T03:52:30;5.50;99.90
10247;DHT22;5168;47.854;7.944;2024-02-15T03:54:57;5.30;99.90
10247;DHT22;5168;47.854;7.944;2024-02-15T03:57:26;5.60;99.90
10247;DHT22;5168;47.854;7.944;2024-02-15T03:59:52;5.40;99.90
10247;DHT22;5168;47.854;7.944;2024-02-15T04:02:23;5.00;99.90
10247;DHT22;5168;47.854;7.944;2024-02-15T04:04:55;5.50;99.90
10247;DHT22;5168;47.854;7.944;2024-02-15T04:07:22;5.60;99.90
10247;DHT22;5168;47.854;7.944;2024-02-15T04:09:48;5.50;99.90
10247;DHT22;5168;47.854;7.944;2024-02-15T04:12:14;4.90;99.90
10247;DHT22;5168;47.854;7.944;2024-02-15T04:14:40;4.90;99.90
10247;DHT22;5168;47.854;7.944;2024-02-15T04:17:06;4.70;99.90
10247;DHT22;5168;47.854;7.944;2024-02-15T04:19:32;4.80;99.90
10247;DHT22;5168;47.854;7.944;2024-02-15T04:21:58;5.00;99.90
10247;DHT22;5168;47.854;7.944;2024-02-15T04:24:26;5.00;99.90
10247;DHT22;5168;47.854;7.944;2024-02-15T04:26:51;4.70;99.90
10247;DHT22;5168;47.854;7.944;2024-02-15T04:29:17;4.60;99.90
10247;DHT22;5168;47.854;7.944;2024-02-15T04:31:46;4.50;99.90
10247;DHT22;5168;47.854;7.944;2024-02-15T04:34:15;5.00;99.90
10247;DHT22;5168;47.854;7.944;2024-02-15T04:36:43;4.50;99.90
10247;DHT22;5168;47.854;7.944;2024-02-15T04:39:10;4.60;99.90
10247;DHT22;5168;47.854;7.944;2024-02-15T04:46:35;4.60;99.90
10247;DHT22;5168;47.854;7.944;2024-02-15T04:49:00;4.70;99.90
10247;DHT22;5168;47.854;7.944;2024-02-15T04:53:54;4.80;99.90
10247;DHT22;5168;47.854;7.944;2024-02-15T04:56:20;4.30;99.90
10247;DHT22;5168;47.854;7.944;2024-02-15T05:01:16;4.80;99.90
10247;DHT22;5168;47.854;7.944;2024-02-15T05:03:45;4.50;99.90
10247;DHT22;5168;47.854;7.944;2024-02-15T05:06:11;4.60;99.90
10247;DHT22;5168;47.854;7.944;2024-02-15T05:08:39;4.60;99.90
10247;DHT22;5168;47.854;7.944;2024-02-15T05:11:11;4.90;99.90
10247;DHT22;5168;47.854;7.944;2024-02-15T05:13:48;4.30;99.90
10247;DHT22;5168;47.854;7.944;2024-02-15T05:16:17;4.60;99.90
10247;DHT22;5168;47.854;7.944;2024-02-15T05:18:42;4.40;99.90
10247;DHT22;5168;47.854;7.944;2024-02-15T05:21:08;4.90;99.90
10247;DHT22;5168;47.854;7.944;2024-02-15T05:23:35;4.40;99.90
10247;DHT22;5168;47.854;7.944;2024-02-15T05:31:20;4.50;99.90
10247;DHT22;5168;47.854;7.944;2024-02-15T05:33:49;4.10;99.90
10247;DHT22;5168;47.854;7.944;2024-02-15T05:36:19;4.40;99.90
10247;DHT22;5168;47.854;7.944;2024-02-15T05:43:38;4.80;99.90
10247;DHT22;5168;47.854;7.944;2024-02-15T05:46:05;4.80;99.90
10247;DHT22;5168;47.854;7.944;2024-02-15T05:48:32;4.70;99.90
10247;DHT22;5168;47.854;7.944;2024-02-15T06:08:07;4.60;99.90
10247;DHT22;5168;47.854;7.944;2024-02-15T06:10:32;4.20;99.90
10247;DHT22;5168;47.854;7.944;2024-02-15T06:12:58;5.00;99.90
10247;DHT22;5168;47.854;7.944;2024-02-15T06:15:26;4.80;99.90
10247;DHT22;5168;47.854;7.944;2024-02-15T06:17:52;4.50;99.90
10247;DHT22;5168;47.854;7.944;2024-02-15T06:20:18;4.60;99.90
10247;DHT22;5168;47.854;7.944;2024-02-15T06:25:12;4.60;99.90
10247;DHT22;5168;47.854;7.944;2024-02-15T06:30:12;4.60;99.90
10247;DHT22;5168;47.854;7.944;2024-02-15T06:32:57;4.30;99.90
10247;DHT22;5168;47.854;7.944;2024-02-15T06:35:41;5.10;99.90
10247;DHT22;5168;47.854;7.944;2024-02-15T06:38:25;4.20;99.90
10247;DHT22;5168;47.854;7.944;2024-02-15T06:46:05;4.70;99.90
10247;DHT22;5168;47.854;7.944;2024-02-15T06:48:31;5.20;99.90
10247;DHT22;5168;47.854;7.944;2024-02-15T06:53:23;5.20;99.90
10247;DHT22;5168;47.854;7.944;2024-02-15T06:55:49;4.60;99.90
10247;DHT22;5168;47.854;7.944;2024-02-15T06:58:16;4.60;99.90
10247;DHT22;5168;47.854;7.944;2024-02-15T07:00:45;4.50;99.90
10247;DHT22;5168;47.854;7.944;2024-02-15T07:05:37;4.80;99.90
10247;DHT22;5168;47.854;7.944;2024-02-15T07:08:07;5.00;99.90
10247;DHT22;5168;47.854;7.944;2024-02-15T07:10:37;5.10;99.90
10247;DHT22;5168;47.854;7.944;2024-02-15T07:13:04;5.10;99.90
10247;DHT22;5168;47.854;7.944;2024-02-15T07:17:58;5.20;99.90
10247;DHT22;5168;47.854;7.944;2024-02-15T07:25:17;5.30;99.90
10247;DHT22;5168;47.854;7.944;2024-02-15T07:27:43;5.10;99.90
10247;DHT22;5168;47.854;7.944;2024-02-15T07:30:09;5.60;99.90
10247;DHT22;5168;47.854;7.944;2024-02-15T07:32:35;5.80;99.90
10247;DHT22;5168;47.854;7.944;2024-02-15T07:35:01;5.50;99.90
10247;DHT22;5168;47.854;7.944;2024-02-15T07:39:54;6.10;99.90
10247;DHT22;5168;47.854;7.944;2024-02-15T07:44:46;6.10;99.90
10247;DHT22;5168;47.854;7.944;2024-02-15T07:49:37;5.90;99.90
10247;DHT22;5168;47.854;7.944;2024-02-15T07:54:30;6.30;99.90
10247;DHT22;5168;47.854;7.944;2024-02-15T07:59:24;5.90;99.90
10247;DHT22;5168;47.854;7.944;2024-02-15T08:01:50;6.00;99.90
10247;DHT22;5168;47.854;7.944;2024-02-15T08:04:16;6.30;99.90
10247;DHT22;5168;47.854;7.944;2024-02-15T08:06:43;6.10;99.90
10247;DHT22;5168;47.854;7.944;2024-02-15T08:09:09;6.30;99.90
10247;DHT22;5168;47.854;7.944;2024-02-15T08:11:43;6.20;99.90
10247;DHT22;5168;47.854;7.944;2024-02-15T08:14:09;6.30;99.90
10247;DHT22;5168;47.854;7.944;2024-02-15T08:16:37;6.70;99.90
10247;DHT22;5168;47.854;7.944;2024-02-15T08:21:33;6.60;99.90
10247;DHT22;5168;47.854;7.944;2024-02-15T08:24:04;7.10;99.90
10247;DHT22;5168;47.854;7.944;2024-02-15T08:26:36;6.60;99.90
10247;DHT22;5168;47.854;7.944;2024-02-15T08:29:03;6.90;99.90
10247;DHT22;5168;47.854;7.944;2024-02-15T08:31:29;6.60;99.90
10247;DHT22;5168;47.854;7.944;2024-02-15T08:36:26;6.80;99.90
10247;DHT22;5168;47.854;7.944;2024-02-15T08:43:47;7.30;99.90
10247;DHT22;5168;47.854;7.944;2024-02-15T08:46:15;7.60;99.90
10247;DHT22;5168;47.854;7.944;2024-02-15T08:51:06;7.70;99.90
10247;DHT22;5168;47.854;7.944;2024-02-15T08:53:34;7.40;99.90
10247;DHT22;5168;47.854;7.944;2024-02-15T09:00:55;7.70;99.90
10247;DHT22;5168;47.854;7.944;2024-02-15T09:03:21;7.50;99.90
10247;DHT22;5168;47.854;7.944;2024-02-15T09:08:13;8.40;99.90
10247;DHT22;5168;47.854;7.944;2024-02-15T09:13:08;8.80;99.90
10247;DHT22;5168;47.854;7.944;2024-02-15T09:15:33;8.70;99.90
10247;DHT22;5168;47.854;7.944;2024-02-15T09:17:59;8.70;99.90
10247;DHT22;5168;47.854;7.944;2024-02-15T09:22:54;8.90;99.90
10247;DHT22;5168;47.854;7.944;2024-02-15T09:25:21;9.00;99.90
10247;DHT22;5168;47.854;7.944;2024-02-15T09:27:50;9.00;99.90
10247;DHT22;5168;47.854;7.944;2024-02-15T09:30:16;10.80;99.90
10247;DHT22;5168;47.854;7.944;2024-02-15T09:32:43;9.30;99.90
10247;DHT22;5168;47.854;7.944;2024-02-15T09:35:09;9.70;99.90
10247;DHT22;5168;47.854;7.944;2024-02-15T09:37:42;10.10;99.90
10247;DHT22;5168;47.854;7.944;2024-02-15T09:40:10;9.80;99.90
10247;DHT22;5168;47.854;7.944;2024-02-15T09:42:38;10.40;99.90
10247;DHT22;5168;47.854;7.944;2024-02-15T09:45:05;10.30;99.90
10247;DHT22;5168;47.854;7.944;2024-02-15T09:47:35;10.40;99.90
10247;DHT22;5168;47.854;7.944;2024-02-15T09:50:12;10.70;99.90
10247;DHT22;5168;47.854;7.944;2024-02-15T09:52:45;10.60;99.90
10247;DHT22;5168;47.854;7.944;2024-02-15T09:55:11;10.90;99.90
10247;DHT22;5168;47.854;7.944;2024-02-15T10:00:05;11.30;99.90
10247;DHT22;5168;47.854;7.944;2024-02-15T10:02:38;11.40;99.90
10247;DHT22;5168;47.854;7.944;2024-02-15T10:05:05;11.00;99.90
10247;DHT22;5168;47.854;7.944;2024-02-15T10:10:23;12.10;99.90
10247;DHT22;5168;47.854;7.944;2024-02-15T10:15:28;12.00;99.90
10247;DHT22;5168;47.854;7.944;2024-02-15T10:17:56;11.90;99.90
10247;DHT22;5168;47.854;7.944;2024-02-15T10:20:22;12.90;99.90
10247;DHT22;5168;47.854;7.944;2024-02-15T10:25:17;13.10;99.90
10247;DHT22;5168;47.854;7.944;2024-02-15T10:27:44;13.40;99.90
10247;DHT22;5168;47.854;7.944;2024-02-15T10:30:18;13.20;99.90
10247;DHT22;5168;47.854;7.944;2024-02-15T10:32:45;13.90;99.90
10247;DHT22;5168;47.854;7.944;2024-02-15T10:35:19;14.10;99.90
10247;DHT22;5168;47.854;7.944;2024-02-15T10:37:45;13.80;99.90
10247;DHT22;5168;47.854;7.944;2024-02-15T10:40:11;14.40;99.90
10247;DHT22;5168;47.854;7.944;2024-02-15T10:42:40;14.30;99.90
10247;DHT22;5168;47.854;7.944;2024-02-15T10:45:07;14.50;99.90
10247;DHT22;5168;47.854;7.944;2024-02-15T10:47:37;14.80;99.90
10247;DHT22;5168;47.854;7.944;2024-02-15T10:50:04;15.20;99.90
10247;DHT22;5168;47.854;7.944;2024-02-15T10:52:31;15.40;99.90
10247;DHT22;5168;47.854;7.944;2024-02-15T10:55:03;15.90;99.90
10247;DHT22;5168;47.854;7.944;2024-02-15T10:57:31;15.30;99.90
10247;DHT22;5168;47.854;7.944;2024-02-15T10:59:59;15.90;99.90
10247;DHT22;5168;47.854;7.944;2024-02-15T11:02:37;16.00;99.90
10247;DHT22;5168;47.854;7.944;2024-02-15T11:05:07;16.10;99.90
10247;DHT22;5168;47.854;7.944;2024-02-15T11:10:08;16.10;99.90
10247;DHT22;5168;47.854;7.944;2024-02-15T11:12:36;16.80;99.90
10247;DHT22;5168;47.854;7.944;2024-02-15T11:15:02;16.60;99.90
10247;DHT22;5168;47.854;7.944;2024-02-15T11:20:10;16.80;99.90
10247;DHT22;5168;47.854;7.944;2024-02-15T11:22:56;16.80;99.90
10247;DHT22;5168;47.854;7.944;2024-02-15T11:25:31;17.00;99.90
10247;DHT22;5168;47.854;7.944;2024-02-15T11:33:30;17.00;99.90
10247;DHT22;5168;47.854;7.944;2024-02-15T11:36:12;16.90;99.90
10247;DHT22;5168;47.854;7.944;2024-02-15T11:38:39;16.80;99.90
10247;DHT22;5168;47.854;7.944;2024-02-15T11:46:20;17.40;99.90
10247;DHT22;5168;47.854;7.944;2024-02-15T11:48:46;17.50;99.90
10247;DHT22;5168;47.854;7.944;2024-02-15T11:51:32;17.10;99.90
10247;DHT22;5168;47.854;7.944;2024-02-15T11:54:06;17.30;99.90
10247;DHT22;5168;47.854;7.944;2024-02-15T11:56:53;17.40;99.90
10247;DHT22;5168;47.854;7.944;2024-02-15T11:59:42;16.90;99.90
10247;DHT22;5168;47.854;7.944;2024-02-15T12:02:19;16.50;99.90
10247;DHT22;5168;47.854;7.944;2024-02-15T12:05:05;16.90;99.90
10247;DHT22;5168;47.854;7.944;2024-02-15T12:16:03;16.90;99.90
10247;DHT22;5168;47.854;7.944;2024-02-15T12:18:48;17.30;99.90
10247;DHT22;5168;47.854;7.944;2024-02-15T12:21:23;17.40;99.90
10247;DHT22;5168;47.854;7.944;2024-02-15T12:23:50;17.60;99.90
10247;DHT22;5168;47.854;7.944;2024-02-15T12:26:20;17.50;99.90
10247;DHT22;5168;47.854;7.944;2024-02-15T12:28:52;17.30;99.90
10247;DHT22;5168;47.854;7.944;2024-02-15T12:31:24;18.10;99.90
10247;DHT22;5168;47.854;7.944;2024-02-15T12:34:04;17.80;99.90
10247;DHT22;5168;47.854;7.944;2024-02-15T12:39:06;17.10;99.90
10247;DHT22;5168;47.854;7.944;2024-02-15T12:41:48;17.50;99.90
10247;DHT22;5168;47.854;7.944;2024-02-15T12:44:18;17.40;99.90
10247;DHT22;5168;47.854;7.944;2024-02-15T12:46:54;17.50;99.50
10247;DHT22;5168;47.854;7.944;2024-02-15T12:51:53;17.20;97.40
10247;DHT22;5168;47.854;7.944;2024-02-15T12:54:22;17.30;99.50
10247;DHT22;5168;47.854;7.944;2024-02-15T12:59:18;16.90;99.90
10247;DHT22;5168;47.854;7.944;2024-02-15T13:04:24;17.10;99.90
10247;DHT22;5168;47.854;7.944;2024-02-15T13:14:15;16.90;99.30
10247;DHT22;5168;47.854;7.944;2024-02-15T13:16:41;16.80;96.10
10247;DHT22;5168;47.854;7.944;2024-02-15T13:31:24;15.60;92.30
10247;DHT22;5168;47.854;7.944;2024-02-15T13:33:49;15.70;91.90
10247;DHT22;5168;47.854;7.944;2024-02-15T13:38:41;15.60;88.30
10247;DHT22;5168;47.854;7.944;2024-02-15T13:41:08;15.20;90.80
10247;DHT22;5168;47.854;7.944;2024-02-15T13:43:34;16.00;91.40
10247;DHT22;5168;47.854;7.944;2024-02-15T13:46:00;16.00;92.80
10247;DHT22;5168;47.854;7.944;2024-02-15T13:48:29;15.70;90.30
10247;DHT22;5168;47.854;7.944;2024-02-15T13:53:21;15.80;91.70
10247;DHT22;5168;47.854;7.944;2024-02-15T13:55:47;15.00;91.20
10247;DHT22;5168;47.854;7.944;2024-02-15T13:58:13;15.60;91.40
10247;DHT22;5168;47.854;7.944;2024-02-15T14:00:40;15.60;89.90
10247;DHT22;5168;47.854;7.944;2024-02-15T14:03:08;15.00;92.50
10247;DHT22;5168;47.854;7.944;2024-02-15T14:05:35;14.90;92.30
10247;DHT22;5168;47.854;7.944;2024-02-15T14:08:05;15.40;93.00
10247;DHT22;5168;47.854;7.944;2024-02-15T14:10:32;15.20;90.80
10247;DHT22;5168;47.854;7.944;2024-02-15T14:17:59;14.60;93.90
10247;DHT22;5168;47.854;7.944;2024-02-15T14:22:53;15.00;95.60
10247;DHT22;5168;47.854;7.944;2024-02-15T14:25:25;14.90;96.10
10247;DHT22;5168;47.854;7.944;2024-02-15T14:35:36;14.40;95.90
10247;DHT22;5168;47.854;7.944;2024-02-15T14:38:08;14.10;96.40
10247;DHT22;5168;47.854;7.944;2024-02-15T14:40:40;13.90;98.30
10247;DHT22;5168;47.854;7.944;2024-02-15T14:43:07;14.30;99.90
10247;DHT22;5168;47.854;7.944;2024-02-15T14:48:07;14.10;98.60
10247;DHT22;5168;47.854;7.944;2024-02-15T14:55:27;14.00;99.90
10247;DHT22;5168;47.854;7.944;2024-02-15T15:00:20;14.00;99.90
10247;DHT22;5168;47.854;7.944;2024-02-15T15:02:49;14.30;99.90
10247;DHT22;5168;47.854;7.944;2024-02-15T15:05:15;14.00;99.90
10247;DHT22;5168;47.854;7.944;2024-02-15T15:08:00;14.40;99.90
10247;DHT22;5168;47.854;7.944;2024-02-15T15:10:45;14.20;99.90
10247;DHT22;5168;47.854;7.944;2024-02-15T15:15:55;13.30;99.90
10247;DHT22;5168;47.854;7.944;2024-02-15T15:30:33;13.20;99.90
10247;DHT22;5168;47.854;7.944;2024-02-15T15:35:29;13.30;99.90
10247;DHT22;5168;47.854;7.944;2024-02-15T15:40:22;13.30;99.90
10247;DHT22;5168;47.854;7.944;2024-02-15T15:42:48;12.90;99.90
10247;DHT22;5168;47.854;7.944;2024-02-15T15:47:41;13.10;99.90
10247;DHT22;5168;47.854;7.944;2024-02-15T15:50:07;13.10;99.90
10247;DHT22;5168;47.854;7.944;2024-02-15T15:52:33;12.50;99.90
10247;DHT22;5168;47.854;7.944;2024-02-15T15:54:59;12.50;99.90
10247;DHT22;5168;47.854;7.944;2024-02-15T15:57:25;12.60;99.90
10247;DHT22;5168;47.854;7.944;2024-02-15T15:59:51;12.50;99.90
10247;DHT22;5168;47.854;7.944;2024-02-15T16:02:17;12.30;99.90
10247;DHT22;5168;47.854;7.944;2024-02-15T16:04:46;12.30;99.90
10247;DHT22;5168;47.854;7.944;2024-02-15T16:07:12;12.00;99.90
10247;DHT22;5168;47.854;7.944;2024-02-15T16:09:38;11.90;99.90
10247;DHT22;5168;47.854;7.944;2024-02-15T16:12:10;12.10;99.90
10247;DHT22;5168;47.854;7.944;2024-02-15T16:17:05;11.80;99.90
10247;DHT22;5168;47.854;7.944;2024-02-15T16:19:34;11.90;99.90
10247;DHT22;5168;47.854;7.944;2024-02-15T16:22:00;11.60;99.90
10247;DHT22;5168;47.854;7.944;2024-02-15T16:29:19;11.50;99.90
10247;DHT22;5168;47.854;7.944;2024-02-15T16:31:44;11.10;99.90
10247;DHT22;5168;47.854;7.944;2024-02-15T16:39:05;11.00;99.90
10247;DHT22;5168;47.854;7.944;2024-02-15T16:46:24;11.00;99.90
10247;DHT22;5168;47.854;7.944;2024-02-15T16:48:52;11.00;99.90
10247;DHT22;5168;47.854;7.944;2024-02-15T16:51:19;10.20;99.90
10247;DHT22;5168;47.854;7.944;2024-02-15T16:56:29;10.60;99.90
10247;DHT22;5168;47.854;7.944;2024-02-15T16:58:56;10.80;99.90
10247;DHT22;5168;47.854;7.944;2024-02-15T17:01:22;10.70;99.90
10247;DHT22;5168;47.854;7.944;2024-02-15T17:08:44;10.60;99.90
10247;DHT22;5168;47.854;7.944;2024-02-15T17:11:14;10.40;99.90
10247;DHT22;5168;47.854;7.944;2024-02-15T17:13:40;10.40;99.90
10247;DHT22;5168;47.854;7.944;2024-02-15T17:16:09;10.30;99.90
10247;DHT22;5168;47.854;7.944;2024-02-15T17:18:34;10.10;99.90
10247;DHT22;5168;47.854;7.944;2024-02-15T17:21:05;10.30;99.90
10247;DHT22;5168;47.854;7.944;2024-02-15T17:25:57;10.40;99.90
10247;DHT22;5168;47.854;7.944;2024-02-15T17:28:22;10.30;99.90
10247;DHT22;5168;47.854;7.944;2024-02-15T17:33:14;10.20;99.90
10247;DHT22;5168;47.854;7.944;2024-02-15T17:40:33;10.10;99.90
10247;DHT22;5168;47.854;7.944;2024-02-15T17:50:16;10.10;99.90
10247;DHT22;5168;47.854;7.944;2024-02-15T17:52:46;10.00;99.90
10247;DHT22;5168;47.854;7.944;2024-02-15T17:55:13;10.00;99.90
10247;DHT22;5168;47.854;7.944;2024-02-15T17:57:40;9.90;99.90
10247;DHT22;5168;47.854;7.944;2024-02-15T18:00:10;10.00;99.90
10247;DHT22;5168;47.854;7.944;2024-02-15T18:02:41;10.30;99.90
10247;DHT22;5168;47.854;7.944;2024-02-15T18:05:09;9.90;99.90
10247;DHT22;5168;47.854;7.944;2024-02-15T18:07:36;9.90;99.90
10247;DHT22;5168;47.854;7.944;2024-02-15T18:10:03;9.80;99.90
10247;DHT22;5168;47.854;7.944;2024-02-15T18:12:32;9.70;99.90
10247;DHT22;5168;47.854;7.944;2024-02-15T18:24:42;9.70;99.90
10247;DHT22;5168;47.854;7.944;2024-02-15T18:32:01;9.60;99.90
10247;DHT22;5168;47.854;7.944;2024-02-15T18:44:12;9.30;99.90
10247;DHT22;5168;47.854;7.944;2024-02-15T18:46:38;9.60;99.90
10247;DHT22;5168;47.854;7.944;2024-02-15T18:49:04;9.90;99.90
10247;DHT22;5168;47.854;7.944;2024-02-15T18:51:29;9.70;99.90
10247;DHT22;5168;47.854;7.944;2024-02-15T18:58:47;9.60;99.90
10247;DHT22;5168;47.854;7.944;2024-02-15T19:01:12;9.40;99.90
10247;DHT22;5168;47.854;7.944;2024-02-15T19:03:39;9.60;99.90
10247;DHT22;5168;47.854;7.944;2024-02-15T19:08:38;9.60;99.90
10247;DHT22;5168;47.854;7.944;2024-02-15T19:15:57;9.40;99.90
10247;DHT22;5168;47.854;7.944;2024-02-15T19:18:23;9.30;99.90
10247;DHT22;5168;47.854;7.944;2024-02-15T19:20:53;9.50;99.90
10247;DHT22;5168;47.854;7.944;2024-02-15T19:33:03;9.10;99.90
10247;DHT22;5168;47.854;7.944;2024-02-15T19:37:57;8.90;99.90
10247;DHT22;5168;47.854;7.944;2024-02-15T19:40:23;9.40;99.90
10247;DHT22;5168;47.854;7.944;2024-02-15T19:42:48;8.90;99.90
10247;DHT22;5168;47.854;7.944;2024-02-15T19:45:17;8.50;99.90
10247;DHT22;5168;47.854;7.944;2024-02-15T19:47:48;8.90;99.90
10247;DHT22;5168;47.854;7.944;2024-02-15T19:50:14;9.10;99.90
10247;DHT22;5168;47.854;7.944;2024-02-15T19:52:42;8.60;99.90
10247;DHT22;5168;47.854;7.944;2024-02-15T20:17:10;8.40;99.90
10247;DHT22;5168;47.854;7.944;2024-02-15T20:19:39;8.60;99.90
10247;DHT22;5168;47.854;7.944;2024-02-15T20:22:06;9.00;99.90
10247;DHT22;5168;47.854;7.944;2024-02-15T20:24:32;8.50;99.90
10247;DHT22;5168;47.854;7.944;2024-02-15T20:26:58;8.80;99.90
10247;DHT22;5168;47.854;7.944;2024-02-15T20:29:27;9.20;99.90
10247;DHT22;5168;47.854;7.944;2024-02-15T20:34:21;9.40;99.90
10247;DHT22;5168;47.854;7.944;2024-02-15T20:36:47;9.40;99.90
10247;DHT22;5168;47.854;7.944;2024-02-15T20:39:13;9.30;99.90
10247;DHT22;5168;47.854;7.944;2024-02-15T20:41:41;9.10;99.90
10247;DHT22;5168;47.854;7.944;2024-02-15T20:44:07;9.50;99.90
10247;DHT22;5168;47.854;7.944;2024-02-15T20:53:52;8.60;99.90
10247;DHT22;5168;47.854;7.944;2024-02-15T20:56:22;8.70;99.90
10247;DHT22;5168;47.854;7.944;2024-02-15T20:58:48;8.40;99.90
10247;DHT22;5168;47.854;7.944;2024-02-15T21:01:15;9.00;99.90
10247;DHT22;5168;47.854;7.944;2024-02-15T21:03:41;8.80;99.90
10247;DHT22;5168;47.854;7.944;2024-02-15T21:06:21;8.50;99.90
10247;DHT22;5168;47.854;7.944;2024-02-15T21:08:51;9.20;99.90
10247;DHT22;5168;47.854;7.944;2024-02-15T21:11:18;9.30;99.90
10247;DHT22;5168;47.854;7.944;2024-02-15T21:16:17;8.80;99.90
10247;DHT22;5168;47.854;7.944;2024-02-15T21:18:44;8.90;99.90
10247;DHT22;5168;47.854;7.944;2024-02-15T21:21:11;8.70;99.90
10247;DHT22;5168;47.854;7.944;2024-02-15T21:23:37;9.00;99.90
10247;DHT22;5168;47.854;7.944;2024-02-15T21:26:02;8.40;99.90
10247;DHT22;5168;47.854;7.944;2024-02-15T21:35:50;9.00;99.90
10247;DHT22;5168;47.854;7.944;2024-02-15T21:38:15;8.90;99.90
10247;DHT22;5168;47.854;7.944;2024-02-15T21:40:41;9.20;99.90
10247;DHT22;5168;47.854;7.944;2024-02-15T21:43:07;9.20;99.90
10247;DHT22;5168;47.854;7.944;2024-02-15T21:48:02;9.50;99.90
10247;DHT22;5168;47.854;7.944;2024-02-15T21:52:54;9.10;99.90
10247;DHT22;5168;47.854;7.944;2024-02-15T21:55:19;9.50;99.90
10247;DHT22;5168;47.854;7.944;2024-02-15T22:05:05;9.00;99.90
10247;DHT22;5168;47.854;7.944;2024-02-15T22:07:31;9.70;99.90
10247;DHT22;5168;47.854;7.944;2024-02-15T22:14:49;9.70;99.90
10247;DHT22;5168;47.854;7.944;2024-02-15T22:22:11;9.30;99.90
10247;DHT22;5168;47.854;7.944;2024-02-15T22:24:37;9.40;99.90
10247;DHT22;5168;47.854;7.944;2024-02-15T22:29:29;10.20;99.90
10247;DHT22;5168;47.854;7.944;2024-02-15T22:36:47;9.50;99.90
10247;DHT22;5168;47.854;7.944;2024-02-15T22:39:13;9.40;99.90
10247;DHT22;5168;47.854;7.944;2024-02-15T22:44:06;9.50;99.90
10247;DHT22;5168;47.854;7.944;2024-02-15T22:48:58;9.50;99.90
10247;DHT22;5168;47.854;7.944;2024-02-15T22:51:24;9.80;99.90
10247;DHT22;5168;47.854;7.944;2024-02-15T22:53:50;10.20;99.90
10247;DHT22;5168;47.854;7.944;2024-02-15T22:56:16;10.00;99.90
10247;DHT22;5168;47.854;7.944;2024-02-15T22:58:42;9.50;99.90
10247;DHT22;5168;47.854;7.944;2024-02-15T23:01:09;9.70;99.90
10247;DHT22;5168;47.854;7.944;2024-02-15T23:03:40;9.80;99.90
10247;DHT22;5168;47.854;7.944;2024-02-15T23:06:06;9.70;99.90
10247;DHT22;5168;47.854;7.944;2024-02-15T23:11:01;9.70;99.90
10247;DHT22;5168;47.854;7.944;2024-02-15T23:13:27;9.80;99.90
10247;DHT22;5168;47.854;7.944;2024-02-15T23:15:52;9.80;99.90
10247;DHT22;5168;47.854;7.944;2024-02-15T23:23:11;10.10;98.50
10247;DHT22;5168;47.854;7.944;2024-02-15T23:25:38;10.00;99.90
10247;DHT22;5168;47.854;7.944;2024-02-15T23:28:04;10.00;99.90
10247;DHT22;5168;47.854;7.944;2024-02-15T23:38:00;10.40;99.90
10247;DHT22;5168;47.854;7.944;2024-02-15T23:40:44;10.40;99.90
10247;DHT22;5168;47.854;7.944;2024-02-15T23:43:10;10.30;99.90
10247;DHT22;5168;47.854;7.944;2024-02-15T23:45:36;10.30;99.90
10247;DHT22;5168;47.854;7.944;2024-02-15T23:48:02;9.80;99.90